Aérodrome :
LOGIN :

S'inscrire | Disclaimer

   EN    FR    IT 

 










Légende :    VFR   VFR Marginal   IFR   IFR Intensif   IFR Très Intensif
Visi : 
Plafond : 
>= 8 km
>= 3000ft
5 à 8 km
1000 à 3000 ft
1500m à 5 km
500 à 1000 ft
800 à 1500m
200 à 500 ft
< 800m
< 200 ft
Symboles :   Orages  Brouillard  Fortes neiges  Fortes précipitations  Vent > 20 kt
SIGMETs :   Divers  Orages  Givrage  Turbulence  Onde Orograph.  Cendres Volcan.






- Altitude de l'aérodrome : 3125 ft
- Code IATA : ESB


LTAC - Ankara Esenboga

DERNIER METAR :
  • 200850Z VRB02KT 9999 -SN BKN035 BKN080 M01/M07 Q1026 NOSIG RMK RWY21L 11003KT 040V150 RWY03L VRB02KT RWY21R 00000KT

METARs EXPIRÉS :
  • 200820Z VRB02KT 9999 SCT040 BKN080 M02/M06 Q1026 NOSIG RMK RWY21L VRB02KT RWY03L VRB01KT RWY21R 00000KT
  • 200750Z VRB01KT 9999 SCT040 BKN080 M03/M06 Q1025 NOSIG RMK RWY21L VRB01KT RWY03L 00000KT RWY21R 00000KT
  • 200720Z VRB01KT 9999 SCT040 BKN080 M04/M07 Q1025 NOSIG RMK RWY21L VRB02KT RWY03L VRB01KT RWY21R 00000KT
  • 200650Z VRB01KT 9999 SCT040 BKN080 M05/M08 Q1025 NOSIG RMK RWY21L 11003KT RWY03L VRB02KT RWY21R 00000KT
  • 200620Z VRB01KT 9999 SCT040 BKN080 M05/M08 Q1025 NOSIG RMK RWY21L VRB02KT RWY03L 00000KT RWY21R 00000KT
  • 200550Z VRB01KT 9999 SCT040 BKN080 M06/M08 Q1025 NOSIG RMK RWY21L VRB01KT RWY03L 26001KT RWY21R 00000KT

TAF TAF LTAC
Valide du 20 à 06h jusqu'au 21 à 06h UTC


200440Z 2006/2106 VRB02KT 9999 SCT040 BKN090
TEMPO 2008/2012 -SN BKN030 BKN080
TEMPO 2013/2017 01012KT 2500 SN SCT010 BKN030
TEMPO 2018/2022 -SN BKN030 BKN080



MET'MAP, la Météo Aéronautique d'un coup d'oeil ! - Copyright ORBIFLY Décembre 2007 - Disclaimer

ORBIFLY MET'MAP TEAM :

Programmation & Développement : Alexandra Zaïnal
Sur une idée originale de : Baudouin d'Aumeries
Assistance à la programmation : Marc-Olivier Méhu
Soutien technique & logistique : Manuel Goepfert

Contact : metmap@orbifly.com




SOURCES & CREDITS :

   NOAA